sensor_id;sensor_type;location;lat;lon;timestamp;pressure;altitude;pressure_sealevel;temperature;humidity
61740;BME280;47645;45.288;12.038;2022-08-01T00:03:25;1014.2228846022243;;;24.99453125;61.08303302883509
61740;BME280;47645;45.288;12.038;2022-08-01T00:13:27;1014.2371693410804;;;25.4939453125;58.40290022485266
61740;BME280;47645;45.288;12.038;2022-08-01T00:23:28;1014.1523040890922;;;24.8416015625;62.41923720369338
61740;BME280;47645;45.288;12.038;2022-08-01T00:33:30;1014.0957196909264;;;25.233984375;58.32979663841786
61740;BME280;47645;45.288;12.038;2022-08-01T00:43:31;1014.1102646292445;;;25.3513671875;57.12143064616131
61740;BME280;47645;45.288;12.038;2022-08-01T00:53:33;1014.1298928350107;;;25.22890625;58.13887599042618
61740;BME280;47645;45.288;12.038;2022-08-01T01:03:34;1014.1359025965322;;;25.3564453125;56.31869328517401
61740;BME280;47645;45.288;12.038;2022-08-01T01:13:38;1014.1715635330978;;;25.300390625;56.236039134870516
61740;BME280;47645;45.288;12.038;2022-08-01T01:23:46;1014.1005036254342;;;24.91796875;57.879109092233364
61740;BME280;47645;45.288;12.038;2022-08-01T01:33:39;1014.0395418029697;;;25.1576171875;56.34592794478123
61740;BME280;47645;45.288;12.038;2022-08-01T01:43:40;1013.9831438748857;;;24.99453125;56.57714308062809
61740;BME280;47645;45.288;12.038;2022-08-01T01:53:41;1014.1297883080057;;;24.708984375;58.574457545926364
61740;BME280;47645;45.288;12.038;2022-08-01T02:03:42;1014.1102623182716;;;24.83125;56.57714530682365
61740;BME280;47645;45.288;12.038;2022-08-01T02:13:44;1014.127682946212;;;24.816015625;56.55352186691655
61740;BME280;47645;45.288;12.038;2022-08-01T02:23:44;1014.0388977402346;;;24.7751953125;56.217375143249754
61740;BME280;47645;45.288;12.038;2022-08-01T02:33:50;1013.9950843708823;;;24.60703125;56.63841172180878
61740;BME280;47645;45.288;12.038;2022-08-01T02:43:51;1014.0191301074804;;;24.1380859375;59.869904314415464
61740;BME280;47645;45.288;12.038;2022-08-01T02:53:50;1014.0929095872582;;;23.975;64.27967779421674
61740;BME280;47645;45.288;12.038;2022-08-01T03:03:50;1014.1005981463744;;;23.6080078125;70.28489351869692
61740;BME280;47645;45.288;12.038;2022-08-01T03:13:52;1014.0413443735065;;;23.4193359375;69.15992261910183
61740;BME280;47645;45.288;12.038;2022-08-01T03:23:59;1013.9712587206261;;;23.7505859375;60.29071535388285
61740;BME280;47645;45.288;12.038;2022-08-01T03:33:54;1014.0008956857002;;;23.96484375;58.91282471610949
61740;BME280;47645;45.288;12.038;2022-08-01T03:43:58;1014.0451123526733;;;24.0310546875;61.39582187286914
61740;BME280;47645;45.288;12.038;2022-08-01T03:53:57;1014.0822267715891;;;23.699609375;63.2075853627878
61740;BME280;47645;45.288;12.038;2022-08-01T04:03:58;1014.0637660505504;;;23.6640625;63.14832336046346
61740;BME280;47645;45.288;12.038;2022-08-01T04:14:00;1014.0400238220737;;;23.3021484375;67.46735311550349
61740;BME280;47645;45.288;12.038;2022-08-01T04:24:05;1014.1140392951951;;;23.6080078125;63.26636560865792
61740;BME280;47645;45.288;12.038;2022-08-01T04:34:03;1014.2359024898335;;;23.353125;75.77337084387868
61740;BME280;47645;45.288;12.038;2022-08-01T04:44:03;1014.2425112997034;;;23.455078125;76.74889230345077
61740;BME280;47645;45.288;12.038;2022-08-01T04:54:04;1014.2395678030857;;;23.5365234375;74.78680732391724
61740;BME280;47645;45.288;12.038;2022-08-01T05:04:05;1014.3414756533405;;;23.78125;77.91274942013632
61740;BME280;47645;45.288;12.038;2022-08-01T05:14:07;1014.3322961447032;;;23.8015625;72.65887014762124
61740;BME280;47645;45.288;12.038;2022-08-01T05:24:07;1014.4366006232328;;;24.0564453125;72.25282097088828
61740;BME280;47645;45.288;12.038;2022-08-01T05:34:08;1014.3925351015334;;;24.2197265625;75.68688533648587
61740;BME280;47645;45.288;12.038;2022-08-01T05:44:10;1014.3222305009067;;;24.5;76.25350670217692
61740;BME280;47645;45.288;12.038;2022-08-01T05:54:11;1014.384763834791;;;24.9892578125;77.14159026750431
61740;BME280;47645;45.288;12.038;2022-08-01T06:04:12;1014.4125577368812;;;25.34609375;76.83245750658993
61740;BME280;47645;45.288;12.038;2022-08-01T06:14:13;1014.4355243446079;;;25.75390625;76.36909157686857
61740;BME280;47645;45.288;12.038;2022-08-01T06:24:15;1014.5055935328347;;;25.6775390625;73.71868329940395
61740;BME280;47645;45.288;12.038;2022-08-01T06:34:16;1014.4931596022043;;;26.04453125;77.16973644026024
61740;BME280;47645;45.288;12.038;2022-08-01T06:44:17;1014.4902040361173;;;26.56953125;77.2123217489206
61740;BME280;47645;45.288;12.038;2022-08-01T06:54:18;1014.4515014063013;;;27.0232421875;75.80042950925886
61740;BME280;47645;45.288;12.038;2022-08-01T07:04:20;1014.4667947987416;;;27.2220703125;76.41063600545947
61740;BME280;47645;45.288;12.038;2022-08-01T07:14:22;1014.5064858466486;;;27.46171875;76.81020254879931
61740;BME280;47645;45.288;12.038;2022-08-01T07:24:22;1014.3828839716772;;;27.757421875;74.91593194740811
61740;BME280;47645;45.288;12.038;2022-08-01T07:34:25;1014.3662582547215;;;27.9103515625;74.31353881083507
61740;BME280;47645;45.288;12.038;2022-08-01T07:44:25;1014.3687516694305;;;27.98671875;65.28886788012349
61740;BME280;47645;45.288;12.038;2022-08-01T07:54:28;1014.3213585445146;;;28.3181640625;64.00803004053498
61740;BME280;47645;45.288;12.038;2022-08-01T08:04:28;1014.315486808005;;;28.7259765625;61.58689793856646
61740;BME280;47645;45.288;12.038;2022-08-01T08:14:29;1014.419501518896;;;28.8279296875;59.88164194485161
61740;BME280;47645;45.288;12.038;2022-08-01T08:24:31;1014.4266422921032;;;29.1439453125;59.696594306150566
61740;BME280;47645;45.288;12.038;2022-08-01T08:34:32;1014.431470896607;;;29.495703125;56.936206453637375
61740;BME280;47645;45.288;12.038;2022-08-01T08:44:34;1014.3963839105251;;;29.8728515625;52.622291864177015
61740;BME280;47645;45.288;12.038;2022-08-01T08:54:37;1014.4171433757105;;;30.0767578125;53.942290372688284
61740;BME280;47645;45.288;12.038;2022-08-01T09:04:37;1014.3866557695682;;;30.4896484375;52.736410067356566
61740;BME280;47645;45.288;12.038;2022-08-01T09:14:45;1014.3891318674683;;;30.739453125;48.735905239913606
61740;BME280;47645;45.288;12.038;2022-08-01T09:24:42;1014.3777695725701;;;31.6060546875;48.10904006366241
61740;BME280;47645;45.288;12.038;2022-08-01T09:34:42;1014.3374238445703;;;32.02421875;46.12125890585051
61740;BME280;47645;45.288;12.038;2022-08-01T09:44:44;1014.2849655131711;;;32.2076171875;43.24985263431334
61740;BME280;47645;45.288;12.038;2022-08-01T09:54:53;1014.2593840522516;;;33.252734375;43.299610819662405
61740;BME280;47645;45.288;12.038;2022-08-01T10:04:48;1014.2514309752419;;;33.55859375;40.95443012102298
61740;BME280;47645;45.288;12.038;2022-08-01T10:14:52;1014.1521256852668;;;34.155078125;42.349112092522866
61740;BME280;47645;45.288;12.038;2022-08-01T10:24:54;1014.1075735402774;;;34.1041015625;41.62142747823377
61740;BME280;47645;45.288;12.038;2022-08-01T10:34:54;1014.0749065966805;;;34.4251953125;42.10632928475471
61740;BME280;47645;45.288;12.038;2022-08-01T10:44:54;1014.0067500535754;;;33.9205078125;43.01727822970026
61740;BME280;47645;45.288;12.038;2022-08-01T10:55:02;1013.8756988977456;;;35.353125;41.45280324625468
61740;BME280;47645;45.288;12.038;2022-08-01T11:05:02;1013.8333055379978;;;34.9912109375;40.71844023943124
61740;BME280;47645;45.288;12.038;2022-08-01T11:15:19;1013.642405267442;;;36.3421875;38.8386315895345
61740;BME280;47645;45.288;12.038;2022-08-01T11:25:02;1013.5819931122879;;;36.3830078125;39.12983668433587
61740;BME280;47645;45.288;12.038;2022-08-01T11:35:02;1013.5182040941042;;;37.9685546875;36.43432673057499
61740;BME280;47645;45.288;12.038;2022-08-01T11:45:07;1013.3838965884262;;;38.2998046875;36.48935179648034
61740;BME280;47645;45.288;12.038;2022-08-01T11:50:06;1013.3469918809578;;;38.2080078125;35.24066313428532
61740;BME280;47645;45.288;12.038;2022-08-01T12:00:12;1013.2427243093198;;;38.6771484375;35.549925660163304
61740;BME280;47645;45.288;12.038;2022-08-01T12:10:10;1013.0661429807415;;;39.2888671875;34.75408828334394
61740;BME280;47645;45.288;12.038;2022-08-01T12:20:14;1012.8958211054851;;;40.1556640625;32.92294408961339
61740;BME280;47645;45.288;12.038;2022-08-01T12:30:15;1012.7859919983373;;;40.125;31.82959206236427
61740;BME280;47645;45.288;12.038;2022-08-01T12:40:17;1012.7019629677369;;;39.39609375;32.760631564729245
61740;BME280;47645;45.288;12.038;2022-08-01T12:50:19;1012.6558484805774;;;39.819140625;32.83467890891673
61740;BME280;47645;45.288;12.038;2022-08-01T13:00:21;1012.5916008008362;;;39.8802734375;33.133502740377025
61740;BME280;47645;45.288;12.038;2022-08-01T13:10:26;1012.4876567995841;;;39.8447265625;33.05622191393064
61740;BME280;47645;45.288;12.038;2022-08-01T13:20:27;1012.3591670050645;;;40.7369140625;30.380724232216153
61740;BME280;47645;45.288;12.038;2022-08-01T13:30:26;1012.3431434504822;;;40.7470703125;29.94705291603855
61740;BME280;47645;45.288;12.038;2022-08-01T13:40:28;1012.28477402013;;;41.1294921875;30.260907693400735
61740;BME280;47645;45.288;12.038;2022-08-01T13:50:30;1012.1765167179732;;;41.0427734375;29.34767642369849
61740;BME280;47645;45.288;12.038;2022-08-01T14:00:32;1011.9596732714392;;;40.9408203125;29.446961488592276
61740;BME280;47645;45.288;12.038;2022-08-01T14:10:35;1011.9989498836798;;;40.6654296875;29.86500634685697
61740;BME280;47645;45.288;12.038;2022-08-01T14:20:38;1012.0025337101638;;;40.415625;29.234162816903392
61740;BME280;47645;45.288;12.038;2022-08-01T14:30:38;1011.941005777798;;;40.7419921875;29.422803886842246
61740;BME280;47645;45.288;12.038;2022-08-01T14:40:41;1011.9647179942668;;;40.30859375;29.394455763071992
61740;BME280;47645;45.288;12.038;2022-08-01T14:50:42;1011.9066263232443;;;40.099609375;29.929939907525036
61740;BME280;47645;45.288;12.038;2022-08-01T15:00:45;1011.9756969537905;;;40.09453125;29.298436277523063
61740;BME280;47645;45.288;12.038;2022-08-01T15:10:47;1011.8663796537962;;;39.691796875;29.65345011143932
61740;BME280;47645;45.288;12.038;2022-08-01T15:20:49;1011.8209335626863;;;39.314453125;29.094305349336036
61740;BME280;47645;45.288;12.038;2022-08-01T15:30:51;1011.7776659856784;;;38.7484375;29.693515507907037
61740;BME280;47645;45.288;12.038;2022-08-01T15:40:55;1011.6865999611284;;;38.549609375;29.597305880392717
61740;BME280;47645;45.288;12.038;2022-08-01T15:50:55;1011.6739414646472;;;38.01953125;29.95448055926588
61740;BME280;47645;45.288;12.038;2022-08-01T16:00:57;1011.6772858542873;;;37.6064453125;30.462836728923698
61740;BME280;47645;45.288;12.038;2022-08-01T16:10:59;1011.6150702059969;;;37.3720703125;30.00857626388152
61740;BME280;47645;45.288;12.038;2022-08-01T16:21:02;1011.6087485689422;;;36.9080078125;28.767473975084528
61740;BME280;47645;45.288;12.038;2022-08-01T16:31:04;1011.48546880269;;;36.56640625;27.90030582219813
61740;BME280;47645;45.288;12.038;2022-08-01T16:41:05;1011.449076275095;;;36.35234375;29.01108548602841
61740;BME280;47645;45.288;12.038;2022-08-01T16:51:07;1011.4090603022829;;;36.071875;29.139134551657566
61740;BME280;47645;45.288;12.038;2022-08-01T17:01:09;1011.3921580130847;;;35.9037109375;30.01461950102523
61740;BME280;47645;45.288;12.038;2022-08-01T17:11:11;1011.4461279882195;;;35.852734375;29.622093991426183
61740;BME280;47645;45.288;12.038;2022-08-01T17:21:13;1011.4783720199042;;;35.55703125;30.512054386539983
61740;BME280;47645;45.288;12.038;2022-08-01T17:31:15;1011.4521286740887;;;35.0013671875;31.906932623445584
61740;BME280;47645;45.288;12.038;2022-08-01T17:41:17;1011.4037821135619;;;34.6904296875;32.53191548937572
61740;BME280;47645;45.288;12.038;2022-08-01T17:51:19;1011.5020404257817;;;34.3080078125;33.37099701217542
61740;BME280;47645;45.288;12.038;2022-08-01T18:01:21;1011.5546536515702;;;33.9359375;34.546208923223034
61740;BME280;47645;45.288;12.038;2022-08-01T18:11:23;1011.5756578201482;;;33.44140625;35.51382579709955
61740;BME280;47645;45.288;12.038;2022-08-01T18:21:24;1011.5899301954211;;;32.9775390625;35.975943127579775
61740;BME280;47645;45.288;12.038;2022-08-01T18:31:26;1011.6302665336317;;;32.5849609375;37.43391129039081
61740;BME280;47645;45.288;12.038;2022-08-01T18:41:28;1011.7967389444761;;;32.1974609375;38.098572643456286
61740;BME280;47645;45.288;12.038;2022-08-01T18:51:30;1011.9157850627415;;;31.71328125;38.33257986435304
61740;BME280;47645;45.288;12.038;2022-08-01T19:01:31;1011.997235524692;;;31.21875;39.31921417716297
61740;BME280;47645;45.288;12.038;2022-08-01T19:11:33;1012.2055912225085;;;30.8873046875;40.57895226814836
61740;BME280;47645;45.288;12.038;2022-08-01T19:21:35;1012.3226734787983;;;30.3572265625;41.65441694584981
61740;BME280;47645;45.288;12.038;2022-08-01T19:31:39;1012.5580528135653;;;29.612890625;43.23001047463651
61740;BME280;47645;45.288;12.038;2022-08-01T19:41:39;1012.7541760977183;;;29.184765625;44.74912096071839
61740;BME280;47645;45.288;12.038;2022-08-01T19:51:41;1012.8414182884543;;;28.6646484375;47.028486716086775
61740;BME280;47645;45.288;12.038;2022-08-01T20:01:42;1012.9472854175141;;;28.312890625;48.394460705577714
61740;BME280;47645;45.288;12.038;2022-08-01T20:11:44;1012.9928941370636;;;28.2517578125;48.784137799555936
61740;BME280;47645;45.288;12.038;2022-08-01T20:21:47;1013.0790244129703;;;28.108984375;49.4984186050895
61740;BME280;47645;45.288;12.038;2022-08-01T20:31:47;1013.0087554039513;;;27.3291015625;52.94229943229119
61740;BME280;47645;45.288;12.038;2022-08-01T20:41:50;1012.9926628396821;;;27.5076171875;53.07508434716009
61740;BME280;47645;45.288;12.038;2022-08-01T20:51:51;1013.2067908529774;;;27.166015625;54.546917107597565
61740;BME280;47645;45.288;12.038;2022-08-01T21:01:56;1013.3135413629626;;;26.263671875;58.07434909027558
61740;BME280;47645;45.288;12.038;2022-08-01T21:11:56;1013.3741999299117;;;26.5083984375;57.55707952905608
61740;BME280;47645;45.288;12.038;2022-08-01T21:21:58;1013.298933085406;;;26.641015625;57.50981058573013
61740;BME280;47645;45.288;12.038;2022-08-01T21:32:12;1013.2231017738853;;;27.1966796875;52.08533519345056
61740;BME280;47645;45.288;12.038;2022-08-01T21:41:56;1013.1839849773293;;;27.4107421875;51.4450755896509
61740;BME280;47645;45.288;12.038;2022-08-01T21:52:03;1013.1282577360644;;;27.56875;49.651373362885046
61740;BME280;47645;45.288;12.038;2022-08-01T22:02:02;1013.0194569091962;;;27.471875;50.0685668621574
61740;BME280;47645;45.288;12.038;2022-08-01T22:12:05;1012.970569588297;;;27.456640625;49.8935699824341
61740;BME280;47645;45.288;12.038;2022-08-01T22:22:02;1013.017077524241;;;26.9978515625;51.73750564493674
61740;BME280;47645;45.288;12.038;2022-08-01T22:32:04;1013.0899460672783;;;26.7326171875;51.99831945832685
61740;BME280;47645;45.288;12.038;2022-08-01T22:42:08;1013.0467748176244;;;26.533984375;53.779554907230754
61740;BME280;47645;45.288;12.038;2022-08-01T22:52:11;1013.075199223119;;;26.4421875;59.25657075757584
61740;BME280;47645;45.288;12.038;2022-08-01T23:02:09;1013.0826764084472;;;26.23828125;65.16038808551339
61740;BME280;47645;45.288;12.038;2022-08-01T23:12:09;1013.0981537007009;;;25.9935546875;59.03554841543047
61740;BME280;47645;45.288;12.038;2022-08-01T23:22:11;1013.2395762490595;;;26.0853515625;67.86479063025625
61740;BME280;47645;45.288;12.038;2022-08-01T23:32:12;1013.4688500617185;;;25.6623046875;70.73102405666786
61740;BME280;47645;45.288;12.038;2022-08-01T23:42:13;1013.61043301404;;;25.53984375;73.12809417315682
61740;BME280;47645;45.288;12.038;2022-08-01T23:52:15;1013.709772166004;;;25.5755859375;73.25145928816737
